^^
Station Historical Data
Daily Summary for February 4, 2018 Units:  Both    English   Metric
« Previous Day
Next Day »
Daily Weekly Monthly Yearly Custom
  High: Low: Average:
Temperature: TemperatureF °F /  -17.8 °C 72.3 °F /  22.4 °C 78.9 °F /  26.1 °C
Dew Point: DewpointF °F /  -17.8 °C 49.5 °F /  9.7 °C 51.5 °F /  10.8 °C
Humidity: Humidity% 33% 38%
Wind Speed: WindSpeedMPHmph /  0km/h - -3.1mph /  -5km/h
Wind Gust: WindSpeedGustMPHmph /  0km/h - -
Wind- - NE
Pressure: PressureIn in /  0 hPa 29.51 in /  999.2 hPa -
Precipitation: 0.03 in /  0.76 mm    
Historical Graphs
 
 
Tabular Data for February 4, 2018
Time Temperature Dew Point Pressure Wind Wind Speed Wind Gust Humidity Rainfall Rate (Hourly) solar Conditions
TemperatureF °F /  -17.8 °C DewpointF °F /  -17.8 °C PressureInin /  0hPa Calm     Humidity% HourlyPrecipInin /  0mm SoftwareType W/m2 Conditions
08:46 72.7 °F /  22.6 °C 50.2 °F /  10.1 °C 29.63in /  1003.3hPa NNE 2.0mph /  3.2km/h 10.0mph /  16.1km/h 45% 0.00in /  0mm meteobridge W/m2
08:52 72.9 °F /  22.7 °C 50.4 °F /  10.2 °C 29.63in /  1003.3hPa North 0.9mph /  1.4km/h 6.0mph /  9.7km/h 45% 0.00in /  0mm meteobridge W/m2
08:58 73.0 °F /  22.8 °C 51.1 °F /  10.6 °C 29.64in /  1003.6hPa NNE 6.9mph /  11.1km/h 7.0mph /  11.3km/h 46% 0.00in /  0mm meteobridge W/m2
09:04 72.9 °F /  22.7 °C 50.9 °F /  10.5 °C 29.64in /  1003.6hPa North 8.9mph /  14.3km/h 11.0mph /  17.7km/h 46% 0.00in /  0mm meteobridge W/m2
09:10 73.0 °F /  22.8 °C 51.1 °F /  10.6 °C 29.64in /  1003.6hPa NNE 6.0mph /  9.7km/h 13.0mph /  20.9km/h 46% 0.00in /  0mm meteobridge W/m2
09:16 73.6 °F /  23.1 °C 51.4 °F /  10.8 °C 29.64in /  1003.6hPa North 11.0mph /  17.7km/h 14.0mph /  22.5km/h 46% 0.00in /  0mm meteobridge W/m2
09:23 74.3 °F /  23.5 °C 50.9 °F /  10.5 °C 29.64in /  1003.6hPa NNE 11.0mph /  17.7km/h 11.0mph /  17.7km/h 44% 0.00in /  0mm meteobridge W/m2
09:29 74.3 °F /  23.5 °C 50.9 °F /  10.5 °C 29.65in /  1003.9hPa North 8.9mph /  14.3km/h 11.0mph /  17.7km/h 44% 0.00in /  0mm meteobridge W/m2
09:35 74.3 °F /  23.5 °C 50.9 °F /  10.5 °C 29.65in /  1003.9hPa NNW 15.0mph /  24.1km/h 15.0mph /  24.1km/h 44% 0.00in /  0mm meteobridge W/m2
09:41 73.9 °F /  23.3 °C 51.3 °F /  10.7 °C 29.65in /  1003.9hPa NNE 8.9mph /  14.3km/h 16.0mph /  25.7km/h 45% 0.00in /  0mm meteobridge W/m2
09:48 74.7 °F /  23.7 °C 51.3 °F /  10.7 °C 29.65in /  1003.9hPa NNE 11.0mph /  17.7km/h 18.0mph /  29km/h 44% 0.00in /  0mm meteobridge W/m2
09:54 75.2 °F /  24 °C 51.1 °F /  10.6 °C 29.65in /  1003.9hPa NNE 14.1mph /  22.7km/h 19.0mph /  30.6km/h 43% 0.00in /  0mm meteobridge W/m2
10:00 75.4 °F /  24.1 °C 50.7 °F /  10.4 °C 29.65in /  1003.9hPa North 11.0mph /  17.7km/h 12.0mph /  19.3km/h 42% 0.00in /  0mm meteobridge W/m2
10:06 75.6 °F /  24.2 °C 50.2 °F /  10.1 °C 29.65in /  1003.9hPa North 6.0mph /  9.7km/h 17.0mph /  27.4km/h 41% 0.00in /  0mm meteobridge W/m2
10:12 75.6 °F /  24.2 °C 50.9 °F /  10.5 °C 29.65in /  1003.9hPa North 6.9mph /  11.1km/h 13.0mph /  20.9km/h 42% 0.00in /  0mm meteobridge W/m2
10:24 76.1 °F /  24.5 °C 50.7 °F /  10.4 °C 29.65in /  1003.9hPa NNE 6.9mph /  11.1km/h 17.0mph /  27.4km/h 41% 0.00in /  0mm meteobridge W/m2
10:32 77.2 °F /  25.1 °C 51.1 °F /  10.6 °C 29.65in /  1003.9hPa NNE 6.0mph /  9.7km/h 16.0mph /  25.7km/h 40% 0.00in /  0mm meteobridge W/m2
10:47 77.5 °F /  25.3 °C 51.3 °F /  10.7 °C 29.65in /  1003.9hPa NNE 19.0mph /  30.6km/h 19.0mph /  30.6km/h 40% 0.00in /  0mm meteobridge W/m2
10:54 78.6 °F /  25.9 °C 51.6 °F /  10.9 °C 29.64in /  1003.6hPa North 12.1mph /  19.5km/h 18.0mph /  29km/h 39% 0.00in /  0mm meteobridge W/m2
11:00 78.4 °F /  25.8 °C 51.4 °F /  10.8 °C 29.65in /  1003.9hPa NNW 12.1mph /  19.5km/h 16.0mph /  25.7km/h 39% 0.00in /  0mm meteobridge W/m2
11:06 78.6 °F /  25.9 °C 52.3 °F /  11.3 °C 29.64in /  1003.6hPa North 14.1mph /  22.7km/h 22.0mph /  35.4km/h 40% 0.00in /  0mm meteobridge W/m2
11:12 78.8 °F /  26 °C 51.8 °F /  11 °C 29.64in /  1003.6hPa NNW 6.0mph /  9.7km/h 12.0mph /  19.3km/h 39% 0.00in /  0mm meteobridge W/m2
11:18 79.7 °F /  26.5 °C 52.5 °F /  11.4 °C 29.64in /  1003.6hPa North 15.0mph /  24.1km/h 19.0mph /  30.6km/h 39% 0.00in /  0mm meteobridge W/m2
11:25 80.4 °F /  26.9 °C 53.2 °F /  11.8 °C 29.64in /  1003.6hPa North 13.0mph /  20.9km/h 19.0mph /  30.6km/h 39% 0.00in /  0mm meteobridge W/m2
11:31 80.4 °F /  26.9 °C 52.5 °F /  11.4 °C 29.64in /  1003.6hPa NNE 11.0mph /  17.7km/h 18.0mph /  29km/h 38% 0.00in /  0mm meteobridge W/m2
11:37 81.0 °F /  27.2 °C 52.9 °F /  11.6 °C 29.64in /  1003.6hPa North 6.9mph /  11.1km/h 15.0mph /  24.1km/h 38% 0.00in /  0mm meteobridge W/m2
11:43 80.1 °F /  26.7 °C 52.9 °F /  11.6 °C 29.64in /  1003.6hPa NNW 14.1mph /  22.7km/h 21.0mph /  33.8km/h 39% 0.00in /  0mm meteobridge W/m2
11:49 80.1 °F /  26.7 °C 52.9 °F /  11.6 °C 29.63in /  1003.3hPa NNE 8.9mph /  14.3km/h 13.0mph /  20.9km/h 39% 0.00in /  0mm meteobridge W/m2
11:55 81.1 °F /  27.3 °C 52.3 °F /  11.3 °C 29.64in /  1003.6hPa NNE 6.9mph /  11.1km/h 17.0mph /  27.4km/h 37% 0.00in /  0mm meteobridge W/m2
12:01 81.5 °F /  27.5 °C 52.7 °F /  11.5 °C 29.63in /  1003.3hPa North 11.0mph /  17.7km/h 15.0mph /  24.1km/h 37% 0.00in /  0mm meteobridge W/m2
12:08 80.6 °F /  27 °C 52.0 °F /  11.1 °C 29.63in /  1003.3hPa NNE 2.9mph /  4.7km/h 18.0mph /  29km/h 37% 0.00in /  0mm meteobridge W/m2
12:14 80.4 °F /  26.9 °C 51.1 °F /  10.6 °C 29.63in /  1003.3hPa North 17.9mph /  28.8km/h 19.0mph /  30.6km/h 36% 0.00in /  0mm meteobridge W/m2
12:20 81.3 °F /  27.4 °C 51.1 °F /  10.6 °C 29.63in /  1003.3hPa North 12.1mph /  19.5km/h 17.0mph /  27.4km/h 35% 0.00in /  0mm meteobridge W/m2
12:26 81.3 °F /  27.4 °C 49.5 °F /  9.7 °C 29.62in /  1002.9hPa NNE 10.1mph /  16.3km/h 19.0mph /  30.6km/h 33% 0.00in /  0mm meteobridge W/m2
12:32 81.3 °F /  27.4 °C 51.8 °F /  11 °C 29.62in /  1002.9hPa NNE 6.9mph /  11.1km/h 11.0mph /  17.7km/h 36% 0.00in /  0mm meteobridge W/m2
12:38 81.0 °F /  27.2 °C 51.4 °F /  10.8 °C 29.62in /  1002.9hPa NNE 12.1mph /  19.5km/h 16.0mph /  25.7km/h 36% 0.00in /  0mm meteobridge W/m2
12:44 81.0 °F /  27.2 °C 51.4 °F /  10.8 °C 29.62in /  1002.9hPa NNE 8.1mph /  13km/h 13.0mph /  20.9km/h 36% 0.00in /  0mm meteobridge W/m2
12:50 80.4 °F /  26.9 °C 52.5 °F /  11.4 °C 29.62in /  1002.9hPa NNW 8.9mph /  14.3km/h 18.0mph /  29km/h 38% 0.00in /  0mm meteobridge W/m2
12:57 81.0 °F /  27.2 °C 52.2 °F /  11.2 °C 29.62in /  1002.9hPa NNE 11.0mph /  17.7km/h 19.0mph /  30.6km/h 37% 0.00in /  0mm meteobridge W/m2
13:03 81.0 °F /  27.2 °C 52.2 °F /  11.2 °C 29.62in /  1002.9hPa North 6.9mph /  11.1km/h 13.0mph /  20.9km/h 37% 0.00in /  0mm meteobridge W/m2
13:09 81.1 °F /  27.3 °C 52.3 °F /  11.3 °C 29.61in /  1002.6hPa NNE 10.1mph /  16.3km/h 17.0mph /  27.4km/h 37% 0.00in /  0mm meteobridge W/m2
13:15 80.4 °F /  26.9 °C 52.5 °F /  11.4 °C 29.61in /  1002.6hPa NNW 6.0mph /  9.7km/h 15.0mph /  24.1km/h 38% 0.00in /  0mm meteobridge W/m2
13:21 80.2 °F /  26.8 °C 51.6 °F /  10.9 °C 29.61in /  1002.6hPa North 10.1mph /  16.3km/h 16.0mph /  25.7km/h 37% 0.00in /  0mm meteobridge W/m2
13:27 81.3 °F /  27.4 °C 51.8 °F /  11 °C 29.61in /  1002.6hPa NNE 12.1mph /  19.5km/h 13.0mph /  20.9km/h 36% 0.00in /  0mm meteobridge W/m2
13:33 82.2 °F /  27.9 °C 52.5 °F /  11.4 °C 29.61in /  1002.6hPa NNE 14.1mph /  22.7km/h 15.0mph /  24.1km/h 36% 0.00in /  0mm meteobridge W/m2
13:39 81.7 °F /  27.6 °C 52.2 °F /  11.2 °C 29.61in /  1002.6hPa North 2.9mph /  4.7km/h 13.0mph /  20.9km/h 36% 0.00in /  0mm meteobridge W/m2
13:45 82.2 °F /  27.9 °C 51.8 °F /  11 °C 29.60in /  1002.3hPa North 4.0mph /  6.4km/h 13.0mph /  20.9km/h 35% 0.00in /  0mm meteobridge W/m2
13:52 82.6 °F /  28.1 °C 52.2 °F /  11.2 °C 29.60in /  1002.3hPa North 10.1mph /  16.3km/h 15.0mph /  24.1km/h 35% 0.00in /  0mm meteobridge W/m2
13:58 82.0 °F /  27.8 °C 52.5 °F /  11.4 °C 29.61in /  1002.6hPa North 11.0mph /  17.7km/h 11.0mph /  17.7km/h 36% 0.00in /  0mm meteobridge W/m2
14:04 81.3 °F /  27.4 °C 51.8 °F /  11 °C 29.60in /  1002.3hPa North 8.9mph /  14.3km/h 16.0mph /  25.7km/h 36% 0.00in /  0mm meteobridge W/m2
14:10 81.1 °F /  27.3 °C 51.6 °F /  10.9 °C 29.60in /  1002.3hPa North 10.1mph /  16.3km/h 13.0mph /  20.9km/h 36% 0.00in /  0mm meteobridge W/m2
14:16 80.8 °F /  27.1 °C 52.2 °F /  11.2 °C 29.60in /  1002.3hPa North 4.9mph /  7.9km/h 12.0mph /  19.3km/h 37% 0.00in /  0mm meteobridge W/m2
14:22 81.0 °F /  27.2 °C 51.4 °F /  10.8 °C 29.60in /  1002.3hPa North 6.0mph /  9.7km/h 13.0mph /  20.9km/h 36% 0.00in /  0mm meteobridge W/m2
14:28 81.3 °F /  27.4 °C 51.1 °F /  10.6 °C 29.59in /  1001.9hPa NNW 11.0mph /  17.7km/h 17.0mph /  27.4km/h 35% 0.00in /  0mm meteobridge W/m2
14:34 81.9 °F /  27.7 °C 51.4 °F /  10.8 °C 29.59in /  1001.9hPa North 11.0mph /  17.7km/h 18.0mph /  29km/h 35% 0.00in /  0mm meteobridge W/m2
14:40 82.2 °F /  27.9 °C 51.8 °F /  11 °C 29.59in /  1001.9hPa NNE 2.9mph /  4.7km/h 5.0mph /  8km/h 35% 0.00in /  0mm meteobridge W/m2
14:47 82.0 °F /  27.8 °C 52.5 °F /  11.4 °C 29.59in /  1001.9hPa NNW 4.9mph /  7.9km/h 14.0mph /  22.5km/h 36% 0.00in /  0mm meteobridge W/m2
14:53 81.3 °F /  27.4 °C 51.8 °F /  11 °C 29.59in /  1001.9hPa North 4.9mph /  7.9km/h 14.0mph /  22.5km/h 36% 0.00in /  0mm meteobridge W/m2
14:59 82.8 °F /  28.2 °C 52.3 °F /  11.3 °C 29.59in /  1001.9hPa North 4.9mph /  7.9km/h 13.0mph /  20.9km/h 35% 0.00in /  0mm meteobridge W/m2
15:05 83.7 °F /  28.7 °C 52.3 °F /  11.3 °C 29.58in /  1001.6hPa NNE 4.9mph /  7.9km/h 12.0mph /  19.3km/h 34% 0.00in /  0mm meteobridge W/m2
15:11 83.7 °F /  28.7 °C 52.3 °F /  11.3 °C 29.58in /  1001.6hPa North 4.0mph /  6.4km/h 14.0mph /  22.5km/h 34% 0.00in /  0mm meteobridge W/m2
15:17 82.6 °F /  28.1 °C 51.4 °F /  10.8 °C 29.58in /  1001.6hPa NNE 8.9mph /  14.3km/h 13.0mph /  20.9km/h 34% 0.00in /  0mm meteobridge W/m2
15:24 82.2 °F /  27.9 °C 51.8 °F /  11 °C 29.57in /  1001.2hPa ENE 2.9mph /  4.7km/h 12.0mph /  19.3km/h 35% 0.00in /  0mm meteobridge W/m2
15:30 83.8 °F /  28.8 °C 52.5 °F /  11.4 °C 29.57in /  1001.2hPa North 0.9mph /  1.4km/h 2.0mph /  3.2km/h 34% 0.00in /  0mm meteobridge W/m2
15:36 84.4 °F /  29.1 °C 52.2 °F /  11.2 °C 29.56in /  1000.9hPa NNE 17.0mph /  27.4km/h 17.0mph /  27.4km/h 33% 0.00in /  0mm meteobridge W/m2
15:42 83.7 °F /  28.7 °C 52.3 °F /  11.3 °C 29.56in /  1000.9hPa North 6.0mph /  9.7km/h 14.0mph /  22.5km/h 34% 0.00in /  0mm meteobridge W/m2
15:48 82.9 °F /  28.3 °C 52.5 °F /  11.4 °C 29.56in /  1000.9hPa North 8.1mph /  13km/h 9.0mph /  14.5km/h 35% 0.00in /  0mm meteobridge W/m2
15:54 82.4 °F /  28 °C 52.0 °F /  11.1 °C 29.55in /  1000.6hPa NE 4.9mph /  7.9km/h 8.0mph /  12.9km/h 35% 0.00in /  0mm meteobridge W/m2
16:00 82.6 °F /  28.1 °C 51.4 °F /  10.8 °C 29.54in /  1000.2hPa NNE 2.9mph /  4.7km/h 13.0mph /  20.9km/h 34% 0.00in /  0mm meteobridge W/m2
16:06 83.3 °F /  28.5 °C 52.9 °F /  11.6 °C 29.54in /  1000.2hPa ENE 0.9mph /  1.4km/h 21.0mph /  33.8km/h 35% 0.00in /  0mm meteobridge W/m2
16:12 84.0 °F /  28.9 °C 52.7 °F /  11.5 °C 29.54in /  1000.2hPa North 4.0mph /  6.4km/h 8.0mph /  12.9km/h 34% 0.00in /  0mm meteobridge W/m2
16:19 84.6 °F /  29.2 °C 53.1 °F /  11.7 °C 29.53in /  999.9hPa NNW 4.9mph /  7.9km/h 13.0mph /  20.9km/h 34% 0.00in /  0mm meteobridge W/m2
16:25 84.4 °F /  29.1 °C 52.2 °F /  11.2 °C 29.53in /  999.9hPa North 10.1mph /  16.3km/h 18.0mph /  29km/h 33% 0.00in /  0mm meteobridge W/m2
16:31 83.3 °F /  28.5 °C 52.0 °F /  11.1 °C 29.53in /  999.9hPa NNE 6.0mph /  9.7km/h 7.0mph /  11.3km/h 34% 0.00in /  0mm meteobridge W/m2
16:37 82.9 °F /  28.3 °C 51.6 °F /  10.9 °C 29.53in /  999.9hPa NNE 4.9mph /  7.9km/h 5.0mph /  8km/h 34% 0.00in /  0mm meteobridge W/m2
16:43 82.6 °F /  28.1 °C 52.2 °F /  11.2 °C 29.53in /  999.9hPa North 0.9mph /  1.4km/h 10.0mph /  16.1km/h 35% 0.00in /  0mm meteobridge W/m2
16:49 82.6 °F /  28.1 °C 52.2 °F /  11.2 °C 29.52in /  999.5hPa NNW 6.9mph /  11.1km/h 11.0mph /  17.7km/h 35% 0.00in /  0mm meteobridge W/m2
16:55 82.2 °F /  27.9 °C 51.8 °F /  11 °C 29.52in /  999.5hPa NNE 4.0mph /  6.4km/h 12.0mph /  19.3km/h 35% 0.00in /  0mm meteobridge W/m2
17:01 82.2 °F /  27.9 °C 51.8 °F /  11 °C 29.52in /  999.5hPa NNW 4.0mph /  6.4km/h 13.0mph /  20.9km/h 35% 0.00in /  0mm meteobridge W/m2
17:07 82.2 °F /  27.9 °C 51.8 °F /  11 °C 29.51in /  999.2hPa NE 6.9mph /  11.1km/h 7.0mph /  11.3km/h 35% 0.00in /  0mm meteobridge W/m2
17:13 82.2 °F /  27.9 °C 51.8 °F /  11 °C 29.51in /  999.2hPa North 4.9mph /  7.9km/h 10.0mph /  16.1km/h 35% 0.00in /  0mm meteobridge W/m2
17:20 82.2 °F /  27.9 °C 51.8 °F /  11 °C 29.52in /  999.5hPa NNE 6.9mph /  11.1km/h 7.0mph /  11.3km/h 35% 0.00in /  0mm meteobridge W/m2
17:26 81.7 °F /  27.6 °C 51.4 °F /  10.8 °C 29.51in /  999.2hPa North 11.0mph /  17.7km/h 15.0mph /  24.1km/h 35% 0.00in /  0mm meteobridge W/m2
17:32 81.5 °F /  27.5 °C 51.3 °F /  10.7 °C 29.51in /  999.2hPa North 6.0mph /  9.7km/h 12.0mph /  19.3km/h 35% 0.00in /  0mm meteobridge W/m2
17:38 80.2 °F /  26.8 °C 54.3 °F /  12.4 °C 29.51in /  999.2hPa NNE 10.1mph /  16.3km/h 14.0mph /  22.5km/h 41% 0.00in /  0mm meteobridge W/m2
17:44 77.2 °F /  25.1 °C 55.9 °F /  13.3 °C 29.52in /  999.5hPa NNE 2.9mph /  4.7km/h 13.0mph /  20.9km/h 48% 0.00in /  0mm meteobridge W/m2
17:50 74.5 °F /  23.6 °C 57.7 °F /  14.3 °C 29.52in /  999.5hPa NNE 4.9mph /  7.9km/h 11.0mph /  17.7km/h 56% 0.01in /  0.25mm meteobridge W/m2
17:56 72.3 °F /  22.4 °C 57.2 °F /  14 °C 29.52in /  999.5hPa North 11.0mph /  17.7km/h 11.0mph /  17.7km/h 59% 0.03in /  0.76mm meteobridge W/m2
18:03 72.3 °F /  22.4 °C 57.2 °F /  14 °C 29.53in /  999.9hPa North 11.0mph /  17.7km/h -999.0mph /  -1607.7km/h 59% 0.03in /  0.76mm meteobridge W/m2
18:09 72.3 °F /  22.4 °C 57.2 °F /  14 °C 29.52in /  999.5hPa North -999.9mph /  -1609.1km/h -999.0mph /  -1607.7km/h 59% 0.03in /  0.76mm meteobridge W/m2
Regenstein, Windhoek, Namibia
Compliments of Weather Underground - 2.5 mb